sensor_id;sensor_type;location;lat;lon;timestamp;P1;durP1;ratioP1;P2;durP2;ratioP2
12871;SDS011;6504;53.766;9.626;2023-06-04T00:02:07;1.63;;;1.50;;
12871;SDS011;6504;53.766;9.626;2023-06-04T00:04:35;4.00;;;1.87;;
12871;SDS011;6504;53.766;9.626;2023-06-04T00:07:03;2.37;;;1.40;;
12871;SDS011;6504;53.766;9.626;2023-06-04T00:09:32;2.57;;;1.63;;
12871;SDS011;6504;53.766;9.626;2023-06-04T00:12:00;2.27;;;1.70;;
12871;SDS011;6504;53.766;9.626;2023-06-04T00:14:30;2.77;;;1.80;;
12871;SDS011;6504;53.766;9.626;2023-06-04T00:16:58;2.60;;;1.63;;
12871;SDS011;6504;53.766;9.626;2023-06-04T00:19:26;1.90;;;1.53;;
12871;SDS011;6504;53.766;9.626;2023-06-04T00:21:54;2.20;;;1.80;;
12871;SDS011;6504;53.766;9.626;2023-06-04T00:24:22;1.90;;;1.70;;
12871;SDS011;6504;53.766;9.626;2023-06-04T00:26:50;2.40;;;1.80;;
12871;SDS011;6504;53.766;9.626;2023-06-04T00:29:18;2.00;;;1.60;;
12871;SDS011;6504;53.766;9.626;2023-06-04T00:31:47;4.27;;;1.77;;
12871;SDS011;6504;53.766;9.626;2023-06-04T00:34:16;2.03;;;1.70;;
12871;SDS011;6504;53.766;9.626;2023-06-04T00:36:45;2.07;;;1.80;;
12871;SDS011;6504;53.766;9.626;2023-06-04T00:39:13;2.90;;;1.87;;
12871;SDS011;6504;53.766;9.626;2023-06-04T00:41:41;3.13;;;1.90;;
12871;SDS011;6504;53.766;9.626;2023-06-04T00:44:09;2.40;;;1.80;;
12871;SDS011;6504;53.766;9.626;2023-06-04T00:46:37;2.53;;;1.70;;
12871;SDS011;6504;53.766;9.626;2023-06-04T00:49:07;2.63;;;1.90;;
12871;SDS011;6504;53.766;9.626;2023-06-04T00:51:35;3.43;;;2.30;;
12871;SDS011;6504;53.766;9.626;2023-06-04T00:54:04;2.30;;;1.80;;
12871;SDS011;6504;53.766;9.626;2023-06-04T00:56:35;2.30;;;1.90;;
12871;SDS011;6504;53.766;9.626;2023-06-04T00:59:04;2.90;;;1.70;;
12871;SDS011;6504;53.766;9.626;2023-06-04T01:01:34;3.90;;;1.80;;
12871;SDS011;6504;53.766;9.626;2023-06-04T01:04:12;3.50;;;2.50;;
12871;SDS011;6504;53.766;9.626;2023-06-04T01:06:44;3.00;;;2.00;;
12871;SDS011;6504;53.766;9.626;2023-06-04T01:09:17;3.60;;;2.30;;
12871;SDS011;6504;53.766;9.626;2023-06-04T01:11:46;2.60;;;2.40;;
12871;SDS011;6504;53.766;9.626;2023-06-04T01:14:14;2.90;;;2.20;;
12871;SDS011;6504;53.766;9.626;2023-06-04T01:16:45;3.20;;;2.20;;
12871;SDS011;6504;53.766;9.626;2023-06-04T01:19:23;2.20;;;1.80;;
12871;SDS011;6504;53.766;9.626;2023-06-04T01:22:17;1.93;;;1.70;;
12871;SDS011;6504;53.766;9.626;2023-06-04T01:24:58;2.63;;;1.90;;
12871;SDS011;6504;53.766;9.626;2023-06-04T01:27:30;3.27;;;2.17;;
12871;SDS011;6504;53.766;9.626;2023-06-04T01:29:58;3.07;;;1.80;;
12871;SDS011;6504;53.766;9.626;2023-06-04T01:32:27;2.77;;;2.10;;
12871;SDS011;6504;53.766;9.626;2023-06-04T01:34:57;3.40;;;2.00;;
12871;SDS011;6504;53.766;9.626;2023-06-04T01:37:25;3.47;;;2.03;;
12871;SDS011;6504;53.766;9.626;2023-06-04T01:39:53;3.10;;;1.87;;
12871;SDS011;6504;53.766;9.626;2023-06-04T01:42:22;2.70;;;1.80;;
12871;SDS011;6504;53.766;9.626;2023-06-04T01:44:50;3.47;;;2.37;;
12871;SDS011;6504;53.766;9.626;2023-06-04T01:47:18;2.53;;;1.97;;
12871;SDS011;6504;53.766;9.626;2023-06-04T01:49:46;3.47;;;2.43;;
12871;SDS011;6504;53.766;9.626;2023-06-04T01:52:15;2.30;;;2.07;;
12871;SDS011;6504;53.766;9.626;2023-06-04T01:54:43;3.17;;;2.10;;
12871;SDS011;6504;53.766;9.626;2023-06-04T01:57:12;2.40;;;1.90;;
12871;SDS011;6504;53.766;9.626;2023-06-04T01:59:40;3.20;;;2.00;;
12871;SDS011;6504;53.766;9.626;2023-06-04T02:02:08;3.20;;;2.10;;
12871;SDS011;6504;53.766;9.626;2023-06-04T02:04:36;4.37;;;2.20;;
12871;SDS011;6504;53.766;9.626;2023-06-04T02:07:08;2.90;;;2.00;;
12871;SDS011;6504;53.766;9.626;2023-06-04T02:09:37;3.20;;;1.90;;
12871;SDS011;6504;53.766;9.626;2023-06-04T02:12:06;3.50;;;2.23;;
12871;SDS011;6504;53.766;9.626;2023-06-04T02:14:35;3.27;;;2.30;;
12871;SDS011;6504;53.766;9.626;2023-06-04T02:17:03;2.70;;;2.17;;
12871;SDS011;6504;53.766;9.626;2023-06-04T02:19:31;3.33;;;2.17;;
12871;SDS011;6504;53.766;9.626;2023-06-04T02:22:03;4.43;;;2.40;;
12871;SDS011;6504;53.766;9.626;2023-06-04T02:24:31;3.80;;;2.50;;
12871;SDS011;6504;53.766;9.626;2023-06-04T02:27:01;5.23;;;2.37;;
12871;SDS011;6504;53.766;9.626;2023-06-04T02:29:29;3.77;;;2.67;;
12871;SDS011;6504;53.766;9.626;2023-06-04T02:31:57;3.30;;;2.43;;
12871;SDS011;6504;53.766;9.626;2023-06-04T02:34:25;4.00;;;2.40;;
12871;SDS011;6504;53.766;9.626;2023-06-04T02:36:53;3.83;;;2.50;;
12871;SDS011;6504;53.766;9.626;2023-06-04T02:39:21;3.97;;;2.63;;
12871;SDS011;6504;53.766;9.626;2023-06-04T02:41:49;4.40;;;2.40;;
12871;SDS011;6504;53.766;9.626;2023-06-04T02:44:19;2.50;;;2.30;;
12871;SDS011;6504;53.766;9.626;2023-06-04T02:46:47;3.97;;;2.13;;
12871;SDS011;6504;53.766;9.626;2023-06-04T02:49:15;2.57;;;2.13;;
12871;SDS011;6504;53.766;9.626;2023-06-04T02:51:43;5.57;;;2.37;;
12871;SDS011;6504;53.766;9.626;2023-06-04T02:54:11;3.20;;;2.57;;
12871;SDS011;6504;53.766;9.626;2023-06-04T02:56:39;3.07;;;2.50;;
12871;SDS011;6504;53.766;9.626;2023-06-04T02:59:09;4.77;;;2.97;;
12871;SDS011;6504;53.766;9.626;2023-06-04T03:01:41;4.47;;;2.50;;
12871;SDS011;6504;53.766;9.626;2023-06-04T03:04:09;3.07;;;2.47;;
12871;SDS011;6504;53.766;9.626;2023-06-04T03:06:42;3.53;;;2.50;;
12871;SDS011;6504;53.766;9.626;2023-06-04T03:09:13;6.37;;;2.57;;
12871;SDS011;6504;53.766;9.626;2023-06-04T03:11:41;2.60;;;2.40;;
12871;SDS011;6504;53.766;9.626;2023-06-04T03:14:09;3.47;;;2.60;;
12871;SDS011;6504;53.766;9.626;2023-06-04T03:16:37;2.50;;;2.27;;
12871;SDS011;6504;53.766;9.626;2023-06-04T03:19:07;3.30;;;2.60;;
12871;SDS011;6504;53.766;9.626;2023-06-04T03:21:37;2.67;;;2.30;;
12871;SDS011;6504;53.766;9.626;2023-06-04T03:24:06;3.50;;;2.53;;
12871;SDS011;6504;53.766;9.626;2023-06-04T03:26:34;3.67;;;2.40;;
12871;SDS011;6504;53.766;9.626;2023-06-04T03:29:02;4.20;;;2.40;;
12871;SDS011;6504;53.766;9.626;2023-06-04T03:31:30;3.40;;;2.33;;
12871;SDS011;6504;53.766;9.626;2023-06-04T03:33:58;3.87;;;2.43;;
12871;SDS011;6504;53.766;9.626;2023-06-04T03:36:29;4.70;;;2.50;;
12871;SDS011;6504;53.766;9.626;2023-06-04T03:38:58;4.57;;;2.50;;
12871;SDS011;6504;53.766;9.626;2023-06-04T03:41:26;2.83;;;2.40;;
12871;SDS011;6504;53.766;9.626;2023-06-04T03:43:54;3.93;;;2.80;;
12871;SDS011;6504;53.766;9.626;2023-06-04T03:46:22;2.73;;;2.27;;
12871;SDS011;6504;53.766;9.626;2023-06-04T03:48:51;2.93;;;2.43;;
12871;SDS011;6504;53.766;9.626;2023-06-04T03:51:19;3.70;;;2.90;;
12871;SDS011;6504;53.766;9.626;2023-06-04T03:53:49;4.27;;;2.60;;
12871;SDS011;6504;53.766;9.626;2023-06-04T03:56:17;3.87;;;2.70;;
12871;SDS011;6504;53.766;9.626;2023-06-04T03:58:46;3.30;;;2.50;;
12871;SDS011;6504;53.766;9.626;2023-06-04T04:01:14;4.07;;;2.90;;
12871;SDS011;6504;53.766;9.626;2023-06-04T04:03:43;3.20;;;2.50;;
12871;SDS011;6504;53.766;9.626;2023-06-04T04:06:15;5.67;;;2.80;;
12871;SDS011;6504;53.766;9.626;2023-06-04T04:08:44;4.60;;;2.70;;
12871;SDS011;6504;53.766;9.626;2023-06-04T04:11:14;3.97;;;2.63;;
12871;SDS011;6504;53.766;9.626;2023-06-04T04:13:44;6.73;;;3.40;;
12871;SDS011;6504;53.766;9.626;2023-06-04T04:16:12;5.43;;;3.00;;
12871;SDS011;6504;53.766;9.626;2023-06-04T04:18:41;4.90;;;3.30;;
12871;SDS011;6504;53.766;9.626;2023-06-04T04:21:10;5.57;;;3.13;;
12871;SDS011;6504;53.766;9.626;2023-06-04T04:23:38;5.43;;;3.00;;
12871;SDS011;6504;53.766;9.626;2023-06-04T04:26:07;6.30;;;3.30;;
12871;SDS011;6504;53.766;9.626;2023-06-04T04:28:37;4.70;;;3.10;;
12871;SDS011;6504;53.766;9.626;2023-06-04T04:31:05;4.30;;;2.90;;
12871;SDS011;6504;53.766;9.626;2023-06-04T04:33:35;4.57;;;3.23;;
12871;SDS011;6504;53.766;9.626;2023-06-04T04:36:05;6.37;;;3.10;;
12871;SDS011;6504;53.766;9.626;2023-06-04T04:38:38;4.17;;;3.07;;
12871;SDS011;6504;53.766;9.626;2023-06-04T04:41:07;5.60;;;3.30;;
12871;SDS011;6504;53.766;9.626;2023-06-04T04:43:36;3.83;;;3.00;;
12871;SDS011;6504;53.766;9.626;2023-06-04T04:46:06;4.00;;;2.70;;
12871;SDS011;6504;53.766;9.626;2023-06-04T04:48:34;4.30;;;3.13;;
12871;SDS011;6504;53.766;9.626;2023-06-04T04:51:04;5.60;;;3.37;;
12871;SDS011;6504;53.766;9.626;2023-06-04T04:53:33;5.47;;;3.10;;
12871;SDS011;6504;53.766;9.626;2023-06-04T04:56:02;5.67;;;3.50;;
12871;SDS011;6504;53.766;9.626;2023-06-04T04:58:33;4.60;;;3.57;;
12871;SDS011;6504;53.766;9.626;2023-06-04T05:01:02;5.83;;;3.73;;
12871;SDS011;6504;53.766;9.626;2023-06-04T05:03:31;5.23;;;3.30;;
12871;SDS011;6504;53.766;9.626;2023-06-04T05:05:59;5.70;;;4.30;;
12871;SDS011;6504;53.766;9.626;2023-06-04T05:08:27;9.07;;;4.13;;
12871;SDS011;6504;53.766;9.626;2023-06-04T05:10:55;8.77;;;4.47;;
12871;SDS011;6504;53.766;9.626;2023-06-04T05:13:23;6.87;;;4.23;;
12871;SDS011;6504;53.766;9.626;2023-06-04T05:15:51;6.73;;;3.60;;
12871;SDS011;6504;53.766;9.626;2023-06-04T05:18:21;6.83;;;3.63;;
12871;SDS011;6504;53.766;9.626;2023-06-04T05:20:55;5.57;;;3.13;;
12871;SDS011;6504;53.766;9.626;2023-06-04T05:23:24;7.47;;;3.33;;
12871;SDS011;6504;53.766;9.626;2023-06-04T05:25:52;6.70;;;3.80;;
12871;SDS011;6504;53.766;9.626;2023-06-04T05:28:20;7.60;;;4.20;;
12871;SDS011;6504;53.766;9.626;2023-06-04T05:30:50;7.57;;;3.87;;
12871;SDS011;6504;53.766;9.626;2023-06-04T05:33:26;7.50;;;3.93;;
12871;SDS011;6504;53.766;9.626;2023-06-04T05:35:54;8.73;;;4.00;;
12871;SDS011;6504;53.766;9.626;2023-06-04T05:38:24;7.07;;;3.77;;
12871;SDS011;6504;53.766;9.626;2023-06-04T05:40:53;8.50;;;3.90;;
12871;SDS011;6504;53.766;9.626;2023-06-04T05:43:22;7.00;;;3.80;;
12871;SDS011;6504;53.766;9.626;2023-06-04T05:45:50;8.07;;;4.10;;
12871;SDS011;6504;53.766;9.626;2023-06-04T05:48:18;8.27;;;4.07;;
12871;SDS011;6504;53.766;9.626;2023-06-04T05:50:48;7.30;;;4.03;;
12871;SDS011;6504;53.766;9.626;2023-06-04T05:53:16;7.53;;;3.93;;
12871;SDS011;6504;53.766;9.626;2023-06-04T05:55:44;7.03;;;3.90;;
12871;SDS011;6504;53.766;9.626;2023-06-04T05:58:12;7.60;;;3.50;;
12871;SDS011;6504;53.766;9.626;2023-06-04T06:00:40;7.70;;;3.87;;
12871;SDS011;6504;53.766;9.626;2023-06-04T06:03:08;6.07;;;3.77;;
12871;SDS011;6504;53.766;9.626;2023-06-04T06:05:37;7.47;;;3.83;;
12871;SDS011;6504;53.766;9.626;2023-06-04T06:08:06;6.13;;;3.30;;
12871;SDS011;6504;53.766;9.626;2023-06-04T06:10:34;7.00;;;3.10;;
12871;SDS011;6504;53.766;9.626;2023-06-04T06:13:02;7.30;;;3.40;;
12871;SDS011;6504;53.766;9.626;2023-06-04T06:15:30;7.53;;;3.50;;
12871;SDS011;6504;53.766;9.626;2023-06-04T06:17:59;5.07;;;3.30;;
12871;SDS011;6504;53.766;9.626;2023-06-04T06:20:27;7.07;;;3.30;;
12871;SDS011;6504;53.766;9.626;2023-06-04T06:22:55;6.87;;;3.33;;
12871;SDS011;6504;53.766;9.626;2023-06-04T06:25:25;5.40;;;3.10;;
12871;SDS011;6504;53.766;9.626;2023-06-04T06:27:53;4.63;;;3.07;;
12871;SDS011;6504;53.766;9.626;2023-06-04T06:30:21;4.37;;;3.10;;
12871;SDS011;6504;53.766;9.626;2023-06-04T06:32:49;5.27;;;2.90;;
12871;SDS011;6504;53.766;9.626;2023-06-04T06:35:21;5.90;;;2.87;;
12871;SDS011;6504;53.766;9.626;2023-06-04T06:37:49;7.33;;;2.80;;
12871;SDS011;6504;53.766;9.626;2023-06-04T06:40:17;4.40;;;2.80;;
12871;SDS011;6504;53.766;9.626;2023-06-04T06:42:49;5.60;;;2.93;;
12871;SDS011;6504;53.766;9.626;2023-06-04T06:45:17;4.33;;;2.50;;
12871;SDS011;6504;53.766;9.626;2023-06-04T06:47:46;4.67;;;2.80;;
12871;SDS011;6504;53.766;9.626;2023-06-04T06:50:15;6.37;;;3.30;;
12871;SDS011;6504;53.766;9.626;2023-06-04T06:52:43;6.17;;;2.47;;
12871;SDS011;6504;53.766;9.626;2023-06-04T06:55:11;6.73;;;3.10;;
12871;SDS011;6504;53.766;9.626;2023-06-04T06:57:39;2.70;;;2.30;;
12871;SDS011;6504;53.766;9.626;2023-06-04T07:00:09;6.17;;;2.70;;
12871;SDS011;6504;53.766;9.626;2023-06-04T07:02:38;4.33;;;2.43;;
12871;SDS011;6504;53.766;9.626;2023-06-04T07:05:07;4.90;;;2.53;;
12871;SDS011;6504;53.766;9.626;2023-06-04T07:07:35;6.63;;;2.87;;
12871;SDS011;6504;53.766;9.626;2023-06-04T07:10:03;5.37;;;2.57;;
12871;SDS011;6504;53.766;9.626;2023-06-04T07:12:32;4.10;;;2.83;;
12871;SDS011;6504;53.766;9.626;2023-06-04T07:15:01;5.40;;;2.43;;
12871;SDS011;6504;53.766;9.626;2023-06-04T07:17:31;4.70;;;2.53;;
12871;SDS011;6504;53.766;9.626;2023-06-04T07:19:59;5.03;;;2.60;;
12871;SDS011;6504;53.766;9.626;2023-06-04T07:22:27;5.77;;;2.63;;
12871;SDS011;6504;53.766;9.626;2023-06-04T07:24:56;3.90;;;2.50;;
12871;SDS011;6504;53.766;9.626;2023-06-04T07:27:24;3.53;;;2.30;;
12871;SDS011;6504;53.766;9.626;2023-06-04T07:29:52;5.33;;;2.60;;
12871;SDS011;6504;53.766;9.626;2023-06-04T07:32:20;4.83;;;2.50;;
12871;SDS011;6504;53.766;9.626;2023-06-04T07:34:50;5.33;;;2.20;;
12871;SDS011;6504;53.766;9.626;2023-06-04T07:37:18;4.20;;;2.20;;
12871;SDS011;6504;53.766;9.626;2023-06-04T07:39:46;4.73;;;2.53;;
12871;SDS011;6504;53.766;9.626;2023-06-04T07:42:14;5.17;;;2.30;;
12871;SDS011;6504;53.766;9.626;2023-06-04T07:44:42;4.03;;;2.30;;
12871;SDS011;6504;53.766;9.626;2023-06-04T07:47:11;4.60;;;2.63;;
12871;SDS011;6504;53.766;9.626;2023-06-04T07:49:39;5.43;;;2.73;;
12871;SDS011;6504;53.766;9.626;2023-06-04T07:52:24;5.47;;;2.50;;
12871;SDS011;6504;53.766;9.626;2023-06-04T07:54:52;3.87;;;2.30;;
12871;SDS011;6504;53.766;9.626;2023-06-04T07:57:21;5.33;;;2.50;;
12871;SDS011;6504;53.766;9.626;2023-06-04T07:59:49;5.97;;;2.27;;
12871;SDS011;6504;53.766;9.626;2023-06-04T08:02:18;3.83;;;2.33;;
12871;SDS011;6504;53.766;9.626;2023-06-04T08:04:46;4.60;;;2.23;;
12871;SDS011;6504;53.766;9.626;2023-06-04T08:07:14;5.77;;;2.60;;
12871;SDS011;6504;53.766;9.626;2023-06-04T08:09:44;3.60;;;2.07;;
12871;SDS011;6504;53.766;9.626;2023-06-04T08:12:12;3.90;;;2.23;;
12871;SDS011;6504;53.766;9.626;2023-06-04T08:14:42;4.43;;;2.70;;
12871;SDS011;6504;53.766;9.626;2023-06-04T08:17:10;4.57;;;2.47;;
12871;SDS011;6504;53.766;9.626;2023-06-04T08:19:38;3.83;;;2.27;;
12871;SDS011;6504;53.766;9.626;2023-06-04T08:22:06;4.90;;;2.70;;
12871;SDS011;6504;53.766;9.626;2023-06-04T08:24:37;4.50;;;2.50;;
12871;SDS011;6504;53.766;9.626;2023-06-04T08:27:07;4.67;;;2.50;;
12871;SDS011;6504;53.766;9.626;2023-06-04T08:29:35;6.47;;;3.10;;
12871;SDS011;6504;53.766;9.626;2023-06-04T08:32:03;4.37;;;2.43;;
12871;SDS011;6504;53.766;9.626;2023-06-04T08:34:32;4.60;;;2.33;;
12871;SDS011;6504;53.766;9.626;2023-06-04T08:37:00;4.40;;;2.10;;
12871;SDS011;6504;53.766;9.626;2023-06-04T08:39:28;3.07;;;1.90;;
12871;SDS011;6504;53.766;9.626;2023-06-04T08:41:57;3.03;;;1.87;;
12871;SDS011;6504;53.766;9.626;2023-06-04T08:44:30;3.13;;;1.80;;
12871;SDS011;6504;53.766;9.626;2023-06-04T08:47:01;5.00;;;2.10;;
12871;SDS011;6504;53.766;9.626;2023-06-04T08:49:33;3.53;;;1.60;;
12871;SDS011;6504;53.766;9.626;2023-06-04T08:52:03;5.03;;;2.00;;
12871;SDS011;6504;53.766;9.626;2023-06-04T08:54:32;4.93;;;2.00;;
12871;SDS011;6504;53.766;9.626;2023-06-04T08:57:00;5.60;;;2.20;;
12871;SDS011;6504;53.766;9.626;2023-06-04T08:59:30;3.60;;;1.90;;
12871;SDS011;6504;53.766;9.626;2023-06-04T09:01:58;4.10;;;1.83;;
12871;SDS011;6504;53.766;9.626;2023-06-04T09:04:27;5.13;;;2.10;;
12871;SDS011;6504;53.766;9.626;2023-06-04T09:06:56;3.13;;;2.07;;
12871;SDS011;6504;53.766;9.626;2023-06-04T09:09:29;3.37;;;1.60;;
12871;SDS011;6504;53.766;9.626;2023-06-04T09:11:58;3.00;;;1.63;;
12871;SDS011;6504;53.766;9.626;2023-06-04T09:14:32;2.27;;;1.73;;
12871;SDS011;6504;53.766;9.626;2023-06-04T09:17:00;3.37;;;1.83;;
12871;SDS011;6504;53.766;9.626;2023-06-04T09:19:29;2.77;;;1.60;;
12871;SDS011;6504;53.766;9.626;2023-06-04T09:21:57;2.00;;;1.53;;
12871;SDS011;6504;53.766;9.626;2023-06-04T09:24:37;2.20;;;1.67;;
12871;SDS011;6504;53.766;9.626;2023-06-04T09:27:10;3.33;;;1.67;;
12871;SDS011;6504;53.766;9.626;2023-06-04T09:29:48;3.20;;;1.40;;
12871;SDS011;6504;53.766;9.626;2023-06-04T09:32:20;3.17;;;1.70;;
12871;SDS011;6504;53.766;9.626;2023-06-04T09:34:49;2.00;;;1.40;;
12871;SDS011;6504;53.766;9.626;2023-06-04T09:37:19;3.63;;;2.00;;
12871;SDS011;6504;53.766;9.626;2023-06-04T09:39:52;2.60;;;1.77;;
12871;SDS011;6504;53.766;9.626;2023-06-04T09:42:21;3.40;;;1.77;;
12871;SDS011;6504;53.766;9.626;2023-06-04T09:44:51;3.53;;;1.80;;
12871;SDS011;6504;53.766;9.626;2023-06-04T09:47:20;2.67;;;1.80;;
12871;SDS011;6504;53.766;9.626;2023-06-04T09:49:48;3.40;;;1.40;;
12871;SDS011;6504;53.766;9.626;2023-06-04T09:52:18;1.83;;;1.40;;
12871;SDS011;6504;53.766;9.626;2023-06-04T09:54:47;1.77;;;1.20;;
12871;SDS011;6504;53.766;9.626;2023-06-04T09:57:16;2.67;;;1.83;;
12871;SDS011;6504;53.766;9.626;2023-06-04T09:59:45;4.00;;;1.57;;
12871;SDS011;6504;53.766;9.626;2023-06-04T10:02:18;3.07;;;1.60;;
12871;SDS011;6504;53.766;9.626;2023-06-04T10:04:48;3.77;;;2.00;;
12871;SDS011;6504;53.766;9.626;2023-06-04T10:07:20;4.60;;;1.80;;
12871;SDS011;6504;53.766;9.626;2023-06-04T10:09:49;2.80;;;1.80;;
12871;SDS011;6504;53.766;9.626;2023-06-04T10:12:20;3.30;;;1.77;;
12871;SDS011;6504;53.766;9.626;2023-06-04T10:14:54;3.13;;;1.80;;
12871;SDS011;6504;53.766;9.626;2023-06-04T10:17:27;3.17;;;1.90;;
12871;SDS011;6504;53.766;9.626;2023-06-04T10:19:57;2.53;;;1.43;;
12871;SDS011;6504;53.766;9.626;2023-06-04T10:22:27;1.83;;;1.37;;
12871;SDS011;6504;53.766;9.626;2023-06-04T10:24:56;2.03;;;1.50;;
12871;SDS011;6504;53.766;9.626;2023-06-04T10:27:25;2.27;;;1.50;;
12871;SDS011;6504;53.766;9.626;2023-06-04T10:29:55;3.73;;;1.50;;
12871;SDS011;6504;53.766;9.626;2023-06-04T10:32:25;3.53;;;1.60;;
12871;SDS011;6504;53.766;9.626;2023-06-04T10:34:56;2.97;;;1.67;;
12871;SDS011;6504;53.766;9.626;2023-06-04T10:37:25;3.03;;;1.53;;
12871;SDS011;6504;53.766;9.626;2023-06-04T10:39:56;4.17;;;1.70;;
12871;SDS011;6504;53.766;9.626;2023-06-04T10:42:25;1.97;;;1.43;;
12871;SDS011;6504;53.766;9.626;2023-06-04T10:44:54;2.03;;;1.47;;
12871;SDS011;6504;53.766;9.626;2023-06-04T10:47:24;2.07;;;1.40;;
12871;SDS011;6504;53.766;9.626;2023-06-04T10:49:54;1.80;;;1.20;;
12871;SDS011;6504;53.766;9.626;2023-06-04T10:52:33;2.13;;;1.30;;
12871;SDS011;6504;53.766;9.626;2023-06-04T10:55:03;2.17;;;1.50;;
12871;SDS011;6504;53.766;9.626;2023-06-04T10:57:32;2.53;;;1.60;;
12871;SDS011;6504;53.766;9.626;2023-06-04T11:00:01;2.40;;;1.30;;
12871;SDS011;6504;53.766;9.626;2023-06-04T11:02:36;3.37;;;1.47;;
12871;SDS011;6504;53.766;9.626;2023-06-04T11:05:07;2.43;;;1.53;;
12871;SDS011;6504;53.766;9.626;2023-06-04T11:07:42;4.53;;;2.20;;
12871;SDS011;6504;53.766;9.626;2023-06-04T11:10:12;3.67;;;1.80;;
12871;SDS011;6504;53.766;9.626;2023-06-04T11:12:41;3.13;;;1.90;;
12871;SDS011;6504;53.766;9.626;2023-06-04T11:15:10;3.73;;;2.20;;
12871;SDS011;6504;53.766;9.626;2023-06-04T11:17:48;3.10;;;2.00;;
12871;SDS011;6504;53.766;9.626;2023-06-04T11:20:19;2.37;;;1.93;;
12871;SDS011;6504;53.766;9.626;2023-06-04T11:22:53;2.03;;;1.83;;
12871;SDS011;6504;53.766;9.626;2023-06-04T11:25:22;3.90;;;2.10;;
12871;SDS011;6504;53.766;9.626;2023-06-04T11:27:52;3.03;;;2.00;;
12871;SDS011;6504;53.766;9.626;2023-06-04T11:30:22;3.33;;;1.87;;
12871;SDS011;6504;53.766;9.626;2023-06-04T11:32:50;2.97;;;1.83;;
12871;SDS011;6504;53.766;9.626;2023-06-04T11:35:29;2.23;;;1.83;;
12871;SDS011;6504;53.766;9.626;2023-06-04T11:37:58;3.97;;;2.30;;
12871;SDS011;6504;53.766;9.626;2023-06-04T11:40:26;3.97;;;1.93;;
12871;SDS011;6504;53.766;9.626;2023-06-04T11:42:54;4.23;;;2.30;;
12871;SDS011;6504;53.766;9.626;2023-06-04T11:45:22;5.90;;;1.90;;
12871;SDS011;6504;53.766;9.626;2023-06-04T11:47:52;3.00;;;2.33;;
12871;SDS011;6504;53.766;9.626;2023-06-04T11:50:22;5.73;;;2.00;;
12871;SDS011;6504;53.766;9.626;2023-06-04T11:52:54;2.10;;;1.57;;
12871;SDS011;6504;53.766;9.626;2023-06-04T11:55:23;4.70;;;1.60;;
12871;SDS011;6504;53.766;9.626;2023-06-04T11:57:51;2.30;;;1.70;;
12871;SDS011;6504;53.766;9.626;2023-06-04T12:00:20;2.80;;;1.73;;
12871;SDS011;6504;53.766;9.626;2023-06-04T12:02:49;4.03;;;1.80;;
12871;SDS011;6504;53.766;9.626;2023-06-04T12:05:20;2.60;;;1.87;;
12871;SDS011;6504;53.766;9.626;2023-06-04T12:07:50;1.97;;;1.50;;
12871;SDS011;6504;53.766;9.626;2023-06-04T12:10:20;2.93;;;1.60;;
12871;SDS011;6504;53.766;9.626;2023-06-04T12:12:53;3.43;;;1.90;;
12871;SDS011;6504;53.766;9.626;2023-06-04T12:15:22;1.97;;;1.30;;
12871;SDS011;6504;53.766;9.626;2023-06-04T12:17:50;2.20;;;1.40;;
12871;SDS011;6504;53.766;9.626;2023-06-04T12:20:18;2.43;;;1.30;;
12871;SDS011;6504;53.766;9.626;2023-06-04T12:22:58;1.30;;;1.20;;
12871;SDS011;6504;53.766;9.626;2023-06-04T12:25:28;2.37;;;1.30;;
12871;SDS011;6504;53.766;9.626;2023-06-04T12:27:57;3.23;;;1.30;;
12871;SDS011;6504;53.766;9.626;2023-06-04T12:30:34;1.40;;;1.10;;
12871;SDS011;6504;53.766;9.626;2023-06-04T12:33:03;2.13;;;1.50;;
12871;SDS011;6504;53.766;9.626;2023-06-04T12:35:33;3.80;;;2.67;;
12871;SDS011;6504;53.766;9.626;2023-06-04T12:38:02;3.57;;;2.10;;
12871;SDS011;6504;53.766;9.626;2023-06-04T12:40:32;3.03;;;2.10;;
12871;SDS011;6504;53.766;9.626;2023-06-04T12:43:00;2.03;;;1.40;;
12871;SDS011;6504;53.766;9.626;2023-06-04T12:45:28;2.50;;;2.00;;
12871;SDS011;6504;53.766;9.626;2023-06-04T12:47:57;2.80;;;1.70;;
12871;SDS011;6504;53.766;9.626;2023-06-04T12:50:25;2.47;;;1.77;;
12871;SDS011;6504;53.766;9.626;2023-06-04T12:52:53;4.33;;;1.90;;
12871;SDS011;6504;53.766;9.626;2023-06-04T12:55:21;2.53;;;1.77;;
12871;SDS011;6504;53.766;9.626;2023-06-04T12:57:54;4.20;;;2.10;;
12871;SDS011;6504;53.766;9.626;2023-06-04T13:00:22;3.17;;;1.70;;
12871;SDS011;6504;53.766;9.626;2023-06-04T13:02:50;2.40;;;1.53;;
12871;SDS011;6504;53.766;9.626;2023-06-04T13:05:18;3.13;;;1.67;;
12871;SDS011;6504;53.766;9.626;2023-06-04T13:07:47;2.63;;;1.80;;
12871;SDS011;6504;53.766;9.626;2023-06-04T13:10:15;3.40;;;1.70;;
12871;SDS011;6504;53.766;9.626;2023-06-04T13:12:43;3.07;;;1.60;;
12871;SDS011;6504;53.766;9.626;2023-06-04T13:15:13;2.87;;;1.60;;
12871;SDS011;6504;53.766;9.626;2023-06-04T13:17:41;2.40;;;1.67;;
12871;SDS011;6504;53.766;9.626;2023-06-04T13:20:09;3.57;;;1.40;;
12871;SDS011;6504;53.766;9.626;2023-06-04T13:22:38;3.20;;;1.80;;
12871;SDS011;6504;53.766;9.626;2023-06-04T13:25:07;2.60;;;1.73;;
12871;SDS011;6504;53.766;9.626;2023-06-04T13:27:35;2.10;;;1.23;;
12871;SDS011;6504;53.766;9.626;2023-06-04T13:30:04;2.30;;;1.53;;
12871;SDS011;6504;53.766;9.626;2023-06-04T13:32:34;2.07;;;1.43;;
12871;SDS011;6504;53.766;9.626;2023-06-04T13:35:02;3.77;;;1.90;;
12871;SDS011;6504;53.766;9.626;2023-06-04T13:37:31;2.60;;;1.60;;
12871;SDS011;6504;53.766;9.626;2023-06-04T13:39:59;3.23;;;1.70;;
12871;SDS011;6504;53.766;9.626;2023-06-04T13:42:27;5.23;;;2.00;;
12871;SDS011;6504;53.766;9.626;2023-06-04T13:44:55;1.67;;;1.57;;
12871;SDS011;6504;53.766;9.626;2023-06-04T13:47:25;2.97;;;1.70;;
12871;SDS011;6504;53.766;9.626;2023-06-04T13:49:54;3.30;;;1.83;;
12871;SDS011;6504;53.766;9.626;2023-06-04T13:52:22;2.33;;;1.50;;
12871;SDS011;6504;53.766;9.626;2023-06-04T13:54:50;2.37;;;1.50;;
12871;SDS011;6504;53.766;9.626;2023-06-04T13:57:19;4.23;;;1.80;;
12871;SDS011;6504;53.766;9.626;2023-06-04T13:59:48;1.70;;;1.37;;
12871;SDS011;6504;53.766;9.626;2023-06-04T14:02:16;2.33;;;1.73;;
12871;SDS011;6504;53.766;9.626;2023-06-04T14:04:44;2.97;;;1.50;;
12871;SDS011;6504;53.766;9.626;2023-06-04T14:07:14;2.90;;;1.57;;
12871;SDS011;6504;53.766;9.626;2023-06-04T14:09:42;2.17;;;1.70;;
12871;SDS011;6504;53.766;9.626;2023-06-04T14:12:10;1.40;;;1.30;;
12871;SDS011;6504;53.766;9.626;2023-06-04T14:14:39;2.37;;;1.40;;
12871;SDS011;6504;53.766;9.626;2023-06-04T14:17:07;1.70;;;1.37;;
12871;SDS011;6504;53.766;9.626;2023-06-04T14:19:35;1.87;;;1.20;;
12871;SDS011;6504;53.766;9.626;2023-06-04T14:22:03;2.50;;;1.47;;
12871;SDS011;6504;53.766;9.626;2023-06-04T14:24:33;2.57;;;1.37;;
12871;SDS011;6504;53.766;9.626;2023-06-04T14:27:01;2.40;;;1.60;;
12871;SDS011;6504;53.766;9.626;2023-06-04T14:29:29;2.27;;;1.60;;
12871;SDS011;6504;53.766;9.626;2023-06-04T14:31:57;2.10;;;1.50;;
12871;SDS011;6504;53.766;9.626;2023-06-04T14:34:25;2.00;;;1.57;;
12871;SDS011;6504;53.766;9.626;2023-06-04T14:36:53;4.13;;;1.50;;
12871;SDS011;6504;53.766;9.626;2023-06-04T14:39:23;2.80;;;1.70;;
12871;SDS011;6504;53.766;9.626;2023-06-04T14:41:53;3.33;;;1.67;;
12871;SDS011;6504;53.766;9.626;2023-06-04T14:44:21;2.40;;;1.40;;
12871;SDS011;6504;53.766;9.626;2023-06-04T14:46:49;2.33;;;1.50;;
12871;SDS011;6504;53.766;9.626;2023-06-04T14:49:18;2.77;;;1.40;;
12871;SDS011;6504;53.766;9.626;2023-06-04T14:51:47;3.30;;;1.53;;
12871;SDS011;6504;53.766;9.626;2023-06-04T14:54:15;2.87;;;1.60;;
12871;SDS011;6504;53.766;9.626;2023-06-04T14:56:43;3.47;;;1.60;;
12871;SDS011;6504;53.766;9.626;2023-06-04T14:59:13;2.77;;;1.33;;
12871;SDS011;6504;53.766;9.626;2023-06-04T15:01:42;2.33;;;1.53;;
12871;SDS011;6504;53.766;9.626;2023-06-04T15:04:12;3.40;;;1.57;;
12871;SDS011;6504;53.766;9.626;2023-06-04T15:06:40;3.23;;;1.80;;
12871;SDS011;6504;53.766;9.626;2023-06-04T15:09:08;2.87;;;1.50;;
12871;SDS011;6504;53.766;9.626;2023-06-04T15:11:37;1.90;;;1.57;;
12871;SDS011;6504;53.766;9.626;2023-06-04T15:14:05;4.47;;;1.50;;